sensor_id;sensor_type;location;lat;lon;timestamp;temperature;humidity
12957;DHT22;6543;48.836;10.092;2023-04-25T00:01:55;6.70;99.90
12957;DHT22;6543;48.836;10.092;2023-04-25T00:04:23;6.80;99.90
12957;DHT22;6543;48.836;10.092;2023-04-25T00:06:52;6.80;99.90
12957;DHT22;6543;48.836;10.092;2023-04-25T00:09:20;7.70;99.90
12957;DHT22;6543;48.836;10.092;2023-04-25T00:11:48;6.80;99.90
12957;DHT22;6543;48.836;10.092;2023-04-25T00:14:15;6.90;99.90
12957;DHT22;6543;48.836;10.092;2023-04-25T00:16:42;7.00;99.90
12957;DHT22;6543;48.836;10.092;2023-04-25T00:19:09;7.40;99.90
12957;DHT22;6543;48.836;10.092;2023-04-25T00:21:36;7.20;99.90
12957;DHT22;6543;48.836;10.092;2023-04-25T00:24:07;7.10;99.90
12957;DHT22;6543;48.836;10.092;2023-04-25T00:26:34;7.10;99.90
12957;DHT22;6543;48.836;10.092;2023-04-25T00:29:01;7.00;99.90
12957;DHT22;6543;48.836;10.092;2023-04-25T00:31:28;7.10;99.90
12957;DHT22;6543;48.836;10.092;2023-04-25T00:33:55;7.20;99.90
12957;DHT22;6543;48.836;10.092;2023-04-25T00:36:23;7.20;99.90
12957;DHT22;6543;48.836;10.092;2023-04-25T00:38:50;7.20;99.90
12957;DHT22;6543;48.836;10.092;2023-04-25T00:41:18;7.20;99.90
12957;DHT22;6543;48.836;10.092;2023-04-25T00:43:48;7.30;99.90
12957;DHT22;6543;48.836;10.092;2023-04-25T00:46:15;7.40;99.90
12957;DHT22;6543;48.836;10.092;2023-04-25T00:48:43;7.40;99.90
12957;DHT22;6543;48.836;10.092;2023-04-25T00:51:13;7.40;99.90
12957;DHT22;6543;48.836;10.092;2023-04-25T00:53:40;7.40;99.90
12957;DHT22;6543;48.836;10.092;2023-04-25T00:56:07;7.40;99.90
12957;DHT22;6543;48.836;10.092;2023-04-25T00:58:37;7.30;99.90
12957;DHT22;6543;48.836;10.092;2023-04-25T01:01:05;7.40;99.90
12957;DHT22;6543;48.836;10.092;2023-04-25T01:03:34;7.40;99.90
12957;DHT22;6543;48.836;10.092;2023-04-25T01:06:06;7.50;99.90
12957;DHT22;6543;48.836;10.092;2023-04-25T01:08:34;7.60;99.90
12957;DHT22;6543;48.836;10.092;2023-04-25T01:11:01;7.70;99.90
12957;DHT22;6543;48.836;10.092;2023-04-25T01:13:28;7.70;99.90
12957;DHT22;6543;48.836;10.092;2023-04-25T01:15:56;7.70;99.90
12957;DHT22;6543;48.836;10.092;2023-04-25T01:18:23;8.50;99.90
12957;DHT22;6543;48.836;10.092;2023-04-25T01:20:51;7.70;99.90
12957;DHT22;6543;48.836;10.092;2023-04-25T01:23:21;7.70;99.90
12957;DHT22;6543;48.836;10.092;2023-04-25T01:25:48;7.60;99.90
12957;DHT22;6543;48.836;10.092;2023-04-25T01:28:16;7.50;99.90
12957;DHT22;6543;48.836;10.092;2023-04-25T01:30:43;7.90;99.90
12957;DHT22;6543;48.836;10.092;2023-04-25T01:33:12;7.40;99.90
12957;DHT22;6543;48.836;10.092;2023-04-25T01:35:40;8.00;99.90
12957;DHT22;6543;48.836;10.092;2023-04-25T01:38:07;7.40;99.90
12957;DHT22;6543;48.836;10.092;2023-04-25T01:40:39;7.60;99.90
12957;DHT22;6543;48.836;10.092;2023-04-25T01:43:07;7.50;99.90
12957;DHT22;6543;48.836;10.092;2023-04-25T01:45:36;7.40;99.90
12957;DHT22;6543;48.836;10.092;2023-04-25T01:48:05;7.30;99.90
12957;DHT22;6543;48.836;10.092;2023-04-25T01:50:32;7.30;99.90
12957;DHT22;6543;48.836;10.092;2023-04-25T01:53:00;7.20;99.90
12957;DHT22;6543;48.836;10.092;2023-04-25T01:55:27;7.10;99.90
12957;DHT22;6543;48.836;10.092;2023-04-25T01:57:56;7.00;99.90
12957;DHT22;6543;48.836;10.092;2023-04-25T02:00:24;7.00;99.90
12957;DHT22;6543;48.836;10.092;2023-04-25T02:02:51;6.90;99.90
12957;DHT22;6543;48.836;10.092;2023-04-25T02:05:19;6.90;99.90
12957;DHT22;6543;48.836;10.092;2023-04-25T02:07:47;6.70;99.90
12957;DHT22;6543;48.836;10.092;2023-04-25T02:10:14;6.70;99.90
12957;DHT22;6543;48.836;10.092;2023-04-25T02:12:41;6.70;99.90
12957;DHT22;6543;48.836;10.092;2023-04-25T02:15:11;6.60;99.90
12957;DHT22;6543;48.836;10.092;2023-04-25T02:17:37;6.70;99.90
12957;DHT22;6543;48.836;10.092;2023-04-25T02:20:06;6.70;99.90
12957;DHT22;6543;48.836;10.092;2023-04-25T02:22:33;6.70;99.90
12957;DHT22;6543;48.836;10.092;2023-04-25T02:25:01;6.80;99.90
12957;DHT22;6543;48.836;10.092;2023-04-25T02:27:29;8.90;99.90
12957;DHT22;6543;48.836;10.092;2023-04-25T02:29:56;7.90;99.90
12957;DHT22;6543;48.836;10.092;2023-04-25T02:32:25;6.90;99.90
12957;DHT22;6543;48.836;10.092;2023-04-25T02:34:52;6.90;99.90
12957;DHT22;6543;48.836;10.092;2023-04-25T02:37:19;8.10;99.90
12957;DHT22;6543;48.836;10.092;2023-04-25T02:39:46;6.90;99.90
12957;DHT22;6543;48.836;10.092;2023-04-25T02:42:13;6.90;99.90
12957;DHT22;6543;48.836;10.092;2023-04-25T02:44:40;6.90;99.90
12957;DHT22;6543;48.836;10.092;2023-04-25T02:47:07;7.00;99.90
12957;DHT22;6543;48.836;10.092;2023-04-25T02:49:36;7.00;99.90
12957;DHT22;6543;48.836;10.092;2023-04-25T02:52:03;7.00;99.90
12957;DHT22;6543;48.836;10.092;2023-04-25T02:54:30;7.00;99.90
12957;DHT22;6543;48.836;10.092;2023-04-25T02:56:57;7.00;99.90
12957;DHT22;6543;48.836;10.092;2023-04-25T02:59:24;7.00;99.90
12957;DHT22;6543;48.836;10.092;2023-04-25T03:01:51;7.10;99.90
12957;DHT22;6543;48.836;10.092;2023-04-25T03:04:18;7.00;99.90
12957;DHT22;6543;48.836;10.092;2023-04-25T03:06:48;7.00;99.90
12957;DHT22;6543;48.836;10.092;2023-04-25T03:09:15;7.10;99.90
12957;DHT22;6543;48.836;10.092;2023-04-25T03:11:43;6.90;99.90
12957;DHT22;6543;48.836;10.092;2023-04-25T03:14:11;6.90;99.90
12957;DHT22;6543;48.836;10.092;2023-04-25T03:16:38;6.80;99.90
12957;DHT22;6543;48.836;10.092;2023-04-25T03:19:04;6.80;99.90
12957;DHT22;6543;48.836;10.092;2023-04-25T03:21:33;6.70;99.90
12957;DHT22;6543;48.836;10.092;2023-04-25T03:24:03;6.80;99.90
12957;DHT22;6543;48.836;10.092;2023-04-25T03:26:30;6.80;99.90
12957;DHT22;6543;48.836;10.092;2023-04-25T03:28:57;7.30;99.90
12957;DHT22;6543;48.836;10.092;2023-04-25T03:31:24;6.80;99.90
12957;DHT22;6543;48.836;10.092;2023-04-25T03:33:51;6.80;99.90
12957;DHT22;6543;48.836;10.092;2023-04-25T03:36:18;7.30;99.90
12957;DHT22;6543;48.836;10.092;2023-04-25T03:38:46;6.70;99.90
12957;DHT22;6543;48.836;10.092;2023-04-25T03:41:17;6.60;99.90
12957;DHT22;6543;48.836;10.092;2023-04-25T03:43:44;6.60;99.90
12957;DHT22;6543;48.836;10.092;2023-04-25T03:46:11;6.50;99.90
12957;DHT22;6543;48.836;10.092;2023-04-25T03:48:38;6.50;99.90
12957;DHT22;6543;48.836;10.092;2023-04-25T03:51:05;6.50;99.90
12957;DHT22;6543;48.836;10.092;2023-04-25T03:53:32;6.50;99.90
12957;DHT22;6543;48.836;10.092;2023-04-25T03:55:59;6.50;99.90
12957;DHT22;6543;48.836;10.092;2023-04-25T03:58:28;6.60;99.90
12957;DHT22;6543;48.836;10.092;2023-04-25T04:00:55;6.60;99.90
12957;DHT22;6543;48.836;10.092;2023-04-25T04:03:22;6.60;99.90
12957;DHT22;6543;48.836;10.092;2023-04-25T04:05:49;6.60;99.90
12957;DHT22;6543;48.836;10.092;2023-04-25T04:08:16;7.00;99.90
12957;DHT22;6543;48.836;10.092;2023-04-25T04:10:43;6.60;99.90
12957;DHT22;6543;48.836;10.092;2023-04-25T04:13:11;6.70;99.90
12957;DHT22;6543;48.836;10.092;2023-04-25T04:15:40;7.90;99.90
12957;DHT22;6543;48.836;10.092;2023-04-25T04:18:07;6.70;99.90
12957;DHT22;6543;48.836;10.092;2023-04-25T04:20:34;6.70;99.90
12957;DHT22;6543;48.836;10.092;2023-04-25T04:23:02;6.80;99.90
12957;DHT22;6543;48.836;10.092;2023-04-25T04:25:29;6.80;99.90
12957;DHT22;6543;48.836;10.092;2023-04-25T04:27:56;6.80;99.90
12957;DHT22;6543;48.836;10.092;2023-04-25T04:30:24;6.80;99.90
12957;DHT22;6543;48.836;10.092;2023-04-25T04:32:56;6.80;99.90
12957;DHT22;6543;48.836;10.092;2023-04-25T04:35:24;6.80;99.90
12957;DHT22;6543;48.836;10.092;2023-04-25T04:37:51;6.80;99.90
12957;DHT22;6543;48.836;10.092;2023-04-25T04:40:18;6.80;99.90
12957;DHT22;6543;48.836;10.092;2023-04-25T04:42:46;7.80;99.90
12957;DHT22;6543;48.836;10.092;2023-04-25T04:45:14;6.80;99.90
12957;DHT22;6543;48.836;10.092;2023-04-25T04:47:42;6.80;99.90
12957;DHT22;6543;48.836;10.092;2023-04-25T04:50:15;7.60;99.90
12957;DHT22;6543;48.836;10.092;2023-04-25T04:52:43;6.90;99.90
12957;DHT22;6543;48.836;10.092;2023-04-25T04:55:10;7.00;99.90
12957;DHT22;6543;48.836;10.092;2023-04-25T04:57:37;6.90;99.90
12957;DHT22;6543;48.836;10.092;2023-04-25T05:00:06;7.00;99.90
12957;DHT22;6543;48.836;10.092;2023-04-25T05:02:37;7.10;99.90
12957;DHT22;6543;48.836;10.092;2023-04-25T05:05:04;7.10;99.90
12957;DHT22;6543;48.836;10.092;2023-04-25T05:07:33;7.10;99.90
12957;DHT22;6543;48.836;10.092;2023-04-25T05:10:01;7.20;99.90
12957;DHT22;6543;48.836;10.092;2023-04-25T05:12:28;7.10;99.90
12957;DHT22;6543;48.836;10.092;2023-04-25T05:14:55;7.10;99.90
12957;DHT22;6543;48.836;10.092;2023-04-25T05:17:22;7.10;99.90
12957;DHT22;6543;48.836;10.092;2023-04-25T05:19:49;7.10;99.90
12957;DHT22;6543;48.836;10.092;2023-04-25T05:22:16;7.10;99.90
12957;DHT22;6543;48.836;10.092;2023-04-25T05:24:45;7.80;99.90
12957;DHT22;6543;48.836;10.092;2023-04-25T05:27:15;7.10;99.90
12957;DHT22;6543;48.836;10.092;2023-04-25T05:29:42;7.20;99.90
12957;DHT22;6543;48.836;10.092;2023-04-25T05:32:10;7.30;99.90
12957;DHT22;6543;48.836;10.092;2023-04-25T05:34:51;7.30;99.90
12957;DHT22;6543;48.836;10.092;2023-04-25T05:37:18;7.30;99.90
12957;DHT22;6543;48.836;10.092;2023-04-25T05:39:46;7.30;99.90
12957;DHT22;6543;48.836;10.092;2023-04-25T05:42:14;7.30;99.90
12957;DHT22;6543;48.836;10.092;2023-04-25T05:44:41;7.30;99.90
12957;DHT22;6543;48.836;10.092;2023-04-25T05:47:08;7.40;99.90
12957;DHT22;6543;48.836;10.092;2023-04-25T05:49:35;8.10;99.90
12957;DHT22;6543;48.836;10.092;2023-04-25T05:52:02;7.40;99.90
12957;DHT22;6543;48.836;10.092;2023-04-25T05:54:29;7.40;99.90
12957;DHT22;6543;48.836;10.092;2023-04-25T05:56:57;7.40;99.90
12957;DHT22;6543;48.836;10.092;2023-04-25T05:59:24;7.50;99.90
12957;DHT22;6543;48.836;10.092;2023-04-25T06:01:51;7.70;99.90
12957;DHT22;6543;48.836;10.092;2023-04-25T06:04:18;7.60;99.90
12957;DHT22;6543;48.836;10.092;2023-04-25T06:06:45;7.60;99.90
12957;DHT22;6543;48.836;10.092;2023-04-25T06:09:13;7.50;99.90
12957;DHT22;6543;48.836;10.092;2023-04-25T06:11:40;7.50;99.90
12957;DHT22;6543;48.836;10.092;2023-04-25T06:14:20;8.10;99.90
12957;DHT22;6543;48.836;10.092;2023-04-25T06:16:48;7.60;99.90
12957;DHT22;6543;48.836;10.092;2023-04-25T06:19:15;7.60;99.90
12957;DHT22;6543;48.836;10.092;2023-04-25T06:21:43;7.60;99.90
12957;DHT22;6543;48.836;10.092;2023-04-25T06:24:10;9.00;99.90
12957;DHT22;6543;48.836;10.092;2023-04-25T06:26:38;7.80;99.90
12957;DHT22;6543;48.836;10.092;2023-04-25T06:29:04;7.90;99.90
12957;DHT22;6543;48.836;10.092;2023-04-25T06:31:33;8.00;99.90
12957;DHT22;6543;48.836;10.092;2023-04-25T06:34:14;7.90;99.90
12957;DHT22;6543;48.836;10.092;2023-04-25T06:36:42;6.80;99.90
12957;DHT22;6543;48.836;10.092;2023-04-25T06:39:11;8.20;99.90
12957;DHT22;6543;48.836;10.092;2023-04-25T06:41:38;9.00;99.90
12957;DHT22;6543;48.836;10.092;2023-04-25T06:44:05;8.10;99.90
12957;DHT22;6543;48.836;10.092;2023-04-25T06:46:34;8.20;99.90
12957;DHT22;6543;48.836;10.092;2023-04-25T06:49:02;9.10;99.90
12957;DHT22;6543;48.836;10.092;2023-04-25T06:51:32;8.40;99.90
12957;DHT22;6543;48.836;10.092;2023-04-25T06:54:14;8.10;99.90
12957;DHT22;6543;48.836;10.092;2023-04-25T06:56:43;8.30;99.90
12957;DHT22;6543;48.836;10.092;2023-04-25T06:59:10;8.30;99.90
12957;DHT22;6543;48.836;10.092;2023-04-25T07:01:40;8.40;99.90
12957;DHT22;6543;48.836;10.092;2023-04-25T07:04:07;8.90;99.90
12957;DHT22;6543;48.836;10.092;2023-04-25T07:06:34;8.00;99.90
12957;DHT22;6543;48.836;10.092;2023-04-25T07:09:07;8.30;99.90
12957;DHT22;6543;48.836;10.092;2023-04-25T07:11:38;8.40;99.90
12957;DHT22;6543;48.836;10.092;2023-04-25T07:14:05;9.80;99.90
12957;DHT22;6543;48.836;10.092;2023-04-25T07:16:32;8.70;99.90
12957;DHT22;6543;48.836;10.092;2023-04-25T07:19:02;8.80;99.90
12957;DHT22;6543;48.836;10.092;2023-04-25T07:21:29;10.20;99.90
12957;DHT22;6543;48.836;10.092;2023-04-25T07:23:58;8.80;99.90
12957;DHT22;6543;48.836;10.092;2023-04-25T07:26:25;8.60;99.90
12957;DHT22;6543;48.836;10.092;2023-04-25T07:28:54;8.00;99.90
12957;DHT22;6543;48.836;10.092;2023-04-25T07:31:22;8.50;99.90
12957;DHT22;6543;48.836;10.092;2023-04-25T07:33:49;9.60;99.90
12957;DHT22;6543;48.836;10.092;2023-04-25T07:36:17;8.50;99.90
12957;DHT22;6543;48.836;10.092;2023-04-25T07:38:44;8.60;99.90
12957;DHT22;6543;48.836;10.092;2023-04-25T07:41:11;9.70;99.90
12957;DHT22;6543;48.836;10.092;2023-04-25T07:43:38;10.30;99.90
12957;DHT22;6543;48.836;10.092;2023-04-25T07:46:05;8.60;99.90
12957;DHT22;6543;48.836;10.092;2023-04-25T07:48:32;9.80;99.90
12957;DHT22;6543;48.836;10.092;2023-04-25T07:51:02;8.80;99.90
12957;DHT22;6543;48.836;10.092;2023-04-25T07:54:01;8.60;99.90
12957;DHT22;6543;48.836;10.092;2023-04-25T07:56:34;10.40;99.90
12957;DHT22;6543;48.836;10.092;2023-04-25T07:59:03;8.80;99.90
12957;DHT22;6543;48.836;10.092;2023-04-25T08:01:33;8.80;99.90
12957;DHT22;6543;48.836;10.092;2023-04-25T08:04:03;9.70;99.90
12957;DHT22;6543;48.836;10.092;2023-04-25T08:06:38;8.70;99.90
12957;DHT22;6543;48.836;10.092;2023-04-25T08:09:09;8.50;99.90
12957;DHT22;6543;48.836;10.092;2023-04-25T08:11:39;8.60;99.90
12957;DHT22;6543;48.836;10.092;2023-04-25T08:14:07;9.10;99.90
12957;DHT22;6543;48.836;10.092;2023-04-25T08:16:34;8.50;99.90
12957;DHT22;6543;48.836;10.092;2023-04-25T08:19:04;8.50;99.90
12957;DHT22;6543;48.836;10.092;2023-04-25T08:21:32;8.60;99.90
12957;DHT22;6543;48.836;10.092;2023-04-25T08:23:59;9.70;99.90
12957;DHT22;6543;48.836;10.092;2023-04-25T08:26:28;8.30;99.90
12957;DHT22;6543;48.836;10.092;2023-04-25T08:28:55;8.30;99.90
12957;DHT22;6543;48.836;10.092;2023-04-25T08:31:22;8.30;99.90
12957;DHT22;6543;48.836;10.092;2023-04-25T08:33:49;8.20;99.90
12957;DHT22;6543;48.836;10.092;2023-04-25T08:36:27;8.20;99.90
12957;DHT22;6543;48.836;10.092;2023-04-25T08:38:54;8.10;99.90
12957;DHT22;6543;48.836;10.092;2023-04-25T08:41:21;9.10;99.90
12957;DHT22;6543;48.836;10.092;2023-04-25T08:43:53;9.80;99.90
12957;DHT22;6543;48.836;10.092;2023-04-25T08:46:26;9.10;99.90
12957;DHT22;6543;48.836;10.092;2023-04-25T08:49:00;9.30;99.90
12957;DHT22;6543;48.836;10.092;2023-04-25T08:51:31;7.90;99.90
12957;DHT22;6543;48.836;10.092;2023-04-25T08:54:14;8.40;99.90
12957;DHT22;6543;48.836;10.092;2023-04-25T08:57:02;8.10;99.90
12957;DHT22;6543;48.836;10.092;2023-04-25T08:59:48;8.10;99.90
12957;DHT22;6543;48.836;10.092;2023-04-25T09:02:17;9.40;99.90
12957;DHT22;6543;48.836;10.092;2023-04-25T09:04:46;8.10;99.90
12957;DHT22;6543;48.836;10.092;2023-04-25T09:07:13;9.10;99.90
12957;DHT22;6543;48.836;10.092;2023-04-25T09:09:46;8.10;99.90
12957;DHT22;6543;48.836;10.092;2023-04-25T09:12:13;10.00;99.90
12957;DHT22;6543;48.836;10.092;2023-04-25T09:15:01;8.90;99.90
12957;DHT22;6543;48.836;10.092;2023-04-25T09:17:29;8.10;99.90
12957;DHT22;6543;48.836;10.092;2023-04-25T09:20:05;9.20;99.90
12957;DHT22;6543;48.836;10.092;2023-04-25T09:22:37;9.40;99.90
12957;DHT22;6543;48.836;10.092;2023-04-25T09:25:13;8.40;99.90
12957;DHT22;6543;48.836;10.092;2023-04-25T09:27:49;7.00;99.90
12957;DHT22;6543;48.836;10.092;2023-04-25T09:30:39;8.70;99.90
12957;DHT22;6543;48.836;10.092;2023-04-25T09:33:12;9.00;99.90
12957;DHT22;6543;48.836;10.092;2023-04-25T09:35:50;9.00;99.90
12957;DHT22;6543;48.836;10.092;2023-04-25T09:38:21;8.60;99.90
12957;DHT22;6543;48.836;10.092;2023-04-25T09:40:54;8.90;99.90
12957;DHT22;6543;48.836;10.092;2023-04-25T09:43:30;9.60;99.90
12957;DHT22;6543;48.836;10.092;2023-04-25T09:46:01;8.00;99.90
12957;DHT22;6543;48.836;10.092;2023-04-25T09:48:36;10.70;99.90
12957;DHT22;6543;48.836;10.092;2023-04-25T09:51:27;7.60;99.90
12957;DHT22;6543;48.836;10.092;2023-04-25T09:54:51;7.10;99.90
12957;DHT22;6543;48.836;10.092;2023-04-25T09:57:54;8.80;99.90
12957;DHT22;6543;48.836;10.092;2023-04-25T10:03:48;8.00;99.90
12957;DHT22;6543;48.836;10.092;2023-04-25T10:06:53;10.80;99.90
12957;DHT22;6543;48.836;10.092;2023-04-25T10:09:44;10.40;99.90
12957;DHT22;6543;48.836;10.092;2023-04-25T10:13:00;10.80;99.90
12957;DHT22;6543;48.836;10.092;2023-04-25T10:19:09;11.10;99.90
12957;DHT22;6543;48.836;10.092;2023-04-25T10:25:34;11.40;99.90
12957;DHT22;6543;48.836;10.092;2023-04-25T10:28:15;11.50;99.90
12957;DHT22;6543;48.836;10.092;2023-04-25T10:31:16;10.60;99.90
12957;DHT22;6543;48.836;10.092;2023-04-25T10:34:15;10.00;99.90
12957;DHT22;6543;48.836;10.092;2023-04-25T10:37:30;10.00;99.90
12957;DHT22;6543;48.836;10.092;2023-04-25T10:40:28;10.00;99.90
12957;DHT22;6543;48.836;10.092;2023-04-25T10:43:43;10.10;99.90
12957;DHT22;6543;48.836;10.092;2023-04-25T10:46:27;10.30;99.90
12957;DHT22;6543;48.836;10.092;2023-04-25T10:49:41;10.30;99.90
12957;DHT22;6543;48.836;10.092;2023-04-25T10:52:18;10.90;99.90
12957;DHT22;6543;48.836;10.092;2023-04-25T10:54:55;11.70;99.90
12957;DHT22;6543;48.836;10.092;2023-04-25T10:57:32;10.90;99.90
12957;DHT22;6543;48.836;10.092;2023-04-25T11:00:06;12.30;99.90
12957;DHT22;6543;48.836;10.092;2023-04-25T11:02:45;10.70;99.90
12957;DHT22;6543;48.836;10.092;2023-04-25T11:05:23;10.80;99.90
12957;DHT22;6543;48.836;10.092;2023-04-25T11:07:56;13.20;99.90
12957;DHT22;6543;48.836;10.092;2023-04-25T11:10:25;11.60;99.90
12957;DHT22;6543;48.836;10.092;2023-04-25T11:12:53;11.40;99.90
12957;DHT22;6543;48.836;10.092;2023-04-25T11:15:25;11.70;99.90
12957;DHT22;6543;48.836;10.092;2023-04-25T11:17:55;10.90;99.90
12957;DHT22;6543;48.836;10.092;2023-04-25T11:20:36;11.20;99.90
12957;DHT22;6543;48.836;10.092;2023-04-25T11:23:31;13.30;99.90
12957;DHT22;6543;48.836;10.092;2023-04-25T11:26:09;14.00;99.90
12957;DHT22;6543;48.836;10.092;2023-04-25T11:29:01;10.70;99.90
12957;DHT22;6543;48.836;10.092;2023-04-25T11:31:43;11.90;99.90
12957;DHT22;6543;48.836;10.092;2023-04-25T11:34:24;11.90;99.90
12957;DHT22;6543;48.836;10.092;2023-04-25T11:36:52;11.70;99.90
12957;DHT22;6543;48.836;10.092;2023-04-25T11:39:24;11.40;99.90
12957;DHT22;6543;48.836;10.092;2023-04-25T11:41:55;12.10;99.90
12957;DHT22;6543;48.836;10.092;2023-04-25T11:44:26;10.10;99.90
12957;DHT22;6543;48.836;10.092;2023-04-25T11:46:55;11.50;99.90
12957;DHT22;6543;48.836;10.092;2023-04-25T11:49:22;11.60;99.90
12957;DHT22;6543;48.836;10.092;2023-04-25T11:51:50;11.60;99.90
12957;DHT22;6543;48.836;10.092;2023-04-25T11:54:17;12.40;99.90
12957;DHT22;6543;48.836;10.092;2023-04-25T11:56:45;11.20;99.90
12957;DHT22;6543;48.836;10.092;2023-04-25T11:59:13;11.70;99.90
12957;DHT22;6543;48.836;10.092;2023-04-25T12:01:51;11.10;99.90
12957;DHT22;6543;48.836;10.092;2023-04-25T12:04:21;10.70;99.90
12957;DHT22;6543;48.836;10.092;2023-04-25T12:06:50;10.10;99.90
12957;DHT22;6543;48.836;10.092;2023-04-25T12:09:19;9.80;99.90
12957;DHT22;6543;48.836;10.092;2023-04-25T12:11:52;9.60;99.90
12957;DHT22;6543;48.836;10.092;2023-04-25T12:14:24;10.80;99.90
12957;DHT22;6543;48.836;10.092;2023-04-25T12:16:56;9.00;99.90
12957;DHT22;6543;48.836;10.092;2023-04-25T12:19:24;10.20;99.90
12957;DHT22;6543;48.836;10.092;2023-04-25T12:21:52;9.10;99.90
12957;DHT22;6543;48.836;10.092;2023-04-25T12:24:23;9.90;99.90
12957;DHT22;6543;48.836;10.092;2023-04-25T12:26:53;8.10;99.90
12957;DHT22;6543;48.836;10.092;2023-04-25T12:29:22;7.90;99.90
12957;DHT22;6543;48.836;10.092;2023-04-25T12:31:50;8.00;99.90
12957;DHT22;6543;48.836;10.092;2023-04-25T12:34:19;7.90;99.90
12957;DHT22;6543;48.836;10.092;2023-04-25T12:36:49;8.90;99.90
12957;DHT22;6543;48.836;10.092;2023-04-25T12:39:19;9.90;99.90
12957;DHT22;6543;48.836;10.092;2023-04-25T12:41:47;7.70;99.90
12957;DHT22;6543;48.836;10.092;2023-04-25T12:44:17;9.20;99.90
12957;DHT22;6543;48.836;10.092;2023-04-25T12:46:44;7.70;99.90
12957;DHT22;6543;48.836;10.092;2023-04-25T12:49:11;7.80;99.90
12957;DHT22;6543;48.836;10.092;2023-04-25T12:51:38;7.70;99.90
12957;DHT22;6543;48.836;10.092;2023-04-25T12:54:07;7.70;99.90
12957;DHT22;6543;48.836;10.092;2023-04-25T12:56:35;7.70;99.90
12957;DHT22;6543;48.836;10.092;2023-04-25T12:59:02;7.70;99.90
12957;DHT22;6543;48.836;10.092;2023-04-25T13:01:31;8.20;99.90
12957;DHT22;6543;48.836;10.092;2023-04-25T13:03:58;8.10;99.90
12957;DHT22;6543;48.836;10.092;2023-04-25T13:06:26;8.20;99.90
12957;DHT22;6543;48.836;10.092;2023-04-25T13:08:53;8.20;99.90
12957;DHT22;6543;48.836;10.092;2023-04-25T13:11:20;7.90;99.90
12957;DHT22;6543;48.836;10.092;2023-04-25T13:13:46;8.40;99.90
12957;DHT22;6543;48.836;10.092;2023-04-25T13:16:13;7.80;99.90
12957;DHT22;6543;48.836;10.092;2023-04-25T13:19:03;8.00;99.90
12957;DHT22;6543;48.836;10.092;2023-04-25T13:21:31;8.00;99.90
12957;DHT22;6543;48.836;10.092;2023-04-25T13:23:58;8.00;99.90
12957;DHT22;6543;48.836;10.092;2023-04-25T13:26:25;8.30;99.90
12957;DHT22;6543;48.836;10.092;2023-04-25T13:28:52;8.50;99.90
12957;DHT22;6543;48.836;10.092;2023-04-25T13:31:20;8.60;99.90
12957;DHT22;6543;48.836;10.092;2023-04-25T13:34:01;8.40;99.90
12957;DHT22;6543;48.836;10.092;2023-04-25T13:36:49;8.50;99.90
12957;DHT22;6543;48.836;10.092;2023-04-25T13:39:16;8.10;99.90
12957;DHT22;6543;48.836;10.092;2023-04-25T13:41:52;8.40;99.90
12957;DHT22;6543;48.836;10.092;2023-04-25T13:44:32;8.20;99.90
12957;DHT22;6543;48.836;10.092;2023-04-25T13:47:15;8.40;99.90
12957;DHT22;6543;48.836;10.092;2023-04-25T13:49:51;8.50;99.90
12957;DHT22;6543;48.836;10.092;2023-04-25T13:52:39;9.30;99.90
12957;DHT22;6543;48.836;10.092;2023-04-25T13:55:10;7.30;99.90
12957;DHT22;6543;48.836;10.092;2023-04-25T13:57:37;9.70;99.90
12957;DHT22;6543;48.836;10.092;2023-04-25T14:00:07;9.90;99.90
12957;DHT22;6543;48.836;10.092;2023-04-25T14:03:04;8.80;99.90
12957;DHT22;6543;48.836;10.092;2023-04-25T14:05:45;8.80;99.90
12957;DHT22;6543;48.836;10.092;2023-04-25T14:08:38;8.80;99.90
12957;DHT22;6543;48.836;10.092;2023-04-25T14:11:09;9.20;99.90
12957;DHT22;6543;48.836;10.092;2023-04-25T14:13:38;9.30;99.90
12957;DHT22;6543;48.836;10.092;2023-04-25T14:16:08;8.80;99.90
12957;DHT22;6543;48.836;10.092;2023-04-25T14:18:38;6.40;99.90
12957;DHT22;6543;48.836;10.092;2023-04-25T14:21:11;6.10;99.90
12957;DHT22;6543;48.836;10.092;2023-04-25T14:23:58;6.40;99.90
12957;DHT22;6543;48.836;10.092;2023-04-25T14:26:25;4.50;99.90
12957;DHT22;6543;48.836;10.092;2023-04-25T14:28:52;6.40;99.90
12957;DHT22;6543;48.836;10.092;2023-04-25T14:31:19;6.70;99.90
12957;DHT22;6543;48.836;10.092;2023-04-25T14:33:46;6.20;99.90
12957;DHT22;6543;48.836;10.092;2023-04-25T14:36:16;6.40;99.90
12957;DHT22;6543;48.836;10.092;2023-04-25T14:38:44;6.30;99.90
12957;DHT22;6543;48.836;10.092;2023-04-25T14:41:14;6.60;99.90
12957;DHT22;6543;48.836;10.092;2023-04-25T14:43:44;6.70;99.90
12957;DHT22;6543;48.836;10.092;2023-04-25T14:46:11;6.70;99.90
12957;DHT22;6543;48.836;10.092;2023-04-25T14:48:39;7.90;99.90
12957;DHT22;6543;48.836;10.092;2023-04-25T14:51:06;7.00;99.90
12957;DHT22;6543;48.836;10.092;2023-04-25T14:53:33;7.60;99.90
12957;DHT22;6543;48.836;10.092;2023-04-25T14:56:00;7.00;99.90
12957;DHT22;6543;48.836;10.092;2023-04-25T14:58:31;6.90;99.90
12957;DHT22;6543;48.836;10.092;2023-04-25T15:00:58;7.50;99.90
12957;DHT22;6543;48.836;10.092;2023-04-25T15:03:26;7.10;99.90
12957;DHT22;6543;48.836;10.092;2023-04-25T15:05:55;8.90;99.90
12957;DHT22;6543;48.836;10.092;2023-04-25T15:08:21;8.50;99.90
12957;DHT22;6543;48.836;10.092;2023-04-25T15:10:49;7.00;99.90
12957;DHT22;6543;48.836;10.092;2023-04-25T15:13:18;6.90;99.90
12957;DHT22;6543;48.836;10.092;2023-04-25T15:15:48;8.90;99.90
12957;DHT22;6543;48.836;10.092;2023-04-25T15:18:16;6.90;99.90
12957;DHT22;6543;48.836;10.092;2023-04-25T15:20:44;6.90;99.90
12957;DHT22;6543;48.836;10.092;2023-04-25T15:23:11;8.30;99.90
12957;DHT22;6543;48.836;10.092;2023-04-25T15:25:44;7.90;99.90
12957;DHT22;6543;48.836;10.092;2023-04-25T15:28:11;6.50;99.90
12957;DHT22;6543;48.836;10.092;2023-04-25T15:30:41;6.40;99.90
12957;DHT22;6543;48.836;10.092;2023-04-25T15:33:10;6.30;99.90
12957;DHT22;6543;48.836;10.092;2023-04-25T15:35:38;8.20;99.90
12957;DHT22;6543;48.836;10.092;2023-04-25T15:38:05;8.50;99.90
12957;DHT22;6543;48.836;10.092;2023-04-25T15:40:32;7.70;99.90
12957;DHT22;6543;48.836;10.092;2023-04-25T15:42:59;6.40;99.90
12957;DHT22;6543;48.836;10.092;2023-04-25T15:45:26;6.60;99.90
12957;DHT22;6543;48.836;10.092;2023-04-25T15:47:55;8.30;99.90
12957;DHT22;6543;48.836;10.092;2023-04-25T15:50:24;7.90;99.90
12957;DHT22;6543;48.836;10.092;2023-04-25T15:52:51;8.10;99.90
12957;DHT22;6543;48.836;10.092;2023-04-25T15:55:19;6.50;99.90
12957;DHT22;6543;48.836;10.092;2023-04-25T15:57:48;7.00;99.90
12957;DHT22;6543;48.836;10.092;2023-04-25T16:00:16;6.40;99.90
12957;DHT22;6543;48.836;10.092;2023-04-25T16:02:44;6.40;99.90
12957;DHT22;6543;48.836;10.092;2023-04-25T16:05:13;6.40;99.90
12957;DHT22;6543;48.836;10.092;2023-04-25T16:07:51;6.30;99.90
12957;DHT22;6543;48.836;10.092;2023-04-25T16:10:19;6.30;99.90
12957;DHT22;6543;48.836;10.092;2023-04-25T16:12:47;6.30;99.90
12957;DHT22;6543;48.836;10.092;2023-04-25T16:15:14;6.30;99.90
12957;DHT22;6543;48.836;10.092;2023-04-25T16:17:41;6.30;99.90
12957;DHT22;6543;48.836;10.092;2023-04-25T16:20:09;6.30;99.90